createdAt,value
2017-12-11T00:00:38.250Z,11.00
2017-12-11T00:01:38.261Z,10.30
2017-12-11T00:02:38.277Z,10.80
2017-12-11T00:03:38.298Z,10.40
2017-12-11T00:04:38.304Z,11.10
2017-12-11T00:05:38.322Z,10.60
2017-12-11T00:06:38.335Z,10.60
2017-12-11T00:07:38.349Z,10.40
2017-12-11T00:08:38.391Z,10.40
2017-12-11T00:09:38.379Z,10.70
2017-12-11T00:10:38.392Z,10.80
2017-12-11T00:11:38.407Z,10.50
2017-12-11T00:12:38.423Z,10.90
2017-12-11T00:13:38.439Z,10.80
2017-12-11T00:14:38.451Z,10.80
2017-12-11T00:15:38.464Z,10.80
2017-12-11T00:16:38.483Z,10.80
2017-12-11T00:17:38.492Z,10.70
2017-12-11T00:18:38.509Z,11.40
2017-12-11T00:19:38.526Z,10.90
2017-12-11T00:20:38.547Z,10.10
2017-12-11T00:21:38.553Z,10.60
2017-12-11T00:22:38.564Z,10.80
2017-12-11T00:23:38.597Z,10.30
2017-12-11T00:24:38.594Z,9.80
2017-12-11T00:25:38.606Z,10.20
2017-12-11T00:26:38.624Z,10.00
2017-12-11T00:27:38.639Z,10.40
2017-12-11T00:28:38.652Z,9.90
2017-12-11T00:29:38.668Z,10.80
2017-12-11T00:30:38.714Z,11.00
2017-12-11T00:31:38.697Z,11.10
2017-12-11T00:32:38.711Z,10.50
2017-12-11T00:33:38.727Z,10.60
2017-12-11T00:34:38.749Z,11.40
2017-12-11T00:35:38.753Z,11.10
2017-12-11T00:36:38.767Z,11.30
2017-12-11T00:37:38.782Z,10.90
2017-12-11T00:38:38.795Z,11.60
2017-12-11T00:39:38.811Z,11.50
2017-12-11T00:40:38.838Z,11.20
2017-12-11T00:41:38.842Z,12.00
2017-12-11T00:42:38.899Z,11.20
2017-12-11T00:43:38.880Z,11.30
2017-12-11T00:44:38.885Z,11.70
2017-12-11T00:45:38.916Z,11.20
2017-12-11T00:46:38.913Z,10.90
2017-12-11T00:47:38.933Z,11.40
2017-12-11T00:48:38.941Z,11.50
2017-12-11T00:49:38.955Z,12.40
2017-12-11T00:50:38.969Z,12.70
2017-12-11T00:51:39.029Z,12.80
2017-12-11T00:52:38.998Z,12.90
2017-12-11T00:53:39.010Z,12.80
2017-12-11T00:54:39.054Z,13.20
2017-12-11T00:55:39.040Z,13.50
2017-12-11T00:56:39.055Z,13.40
2017-12-11T00:57:39.070Z,13.20
2017-12-11T00:58:39.086Z,13.80
2017-12-11T00:59:39.099Z,14.40
2017-12-11T01:00:39.112Z,14.30
2017-12-11T01:01:39.130Z,14.30
2017-12-11T01:02:39.139Z,14.40
2017-12-11T01:03:39.158Z,14.40
2017-12-11T01:04:39.168Z,14.20
2017-12-11T01:05:39.183Z,14.30
2017-12-11T01:06:39.192Z,15.70
2017-12-11T01:07:39.228Z,15.00
2017-12-11T01:08:39.226Z,15.20
2017-12-11T01:09:39.245Z,14.60
2017-12-11T01:10:39.258Z,15.20
2017-12-11T01:11:39.274Z,14.70
2017-12-11T01:12:39.284Z,15.80
2017-12-11T01:13:39.296Z,15.80
2017-12-11T01:14:39.315Z,16.40
2017-12-11T01:15:39.327Z,15.30
2017-12-11T01:16:39.337Z,15.70
2017-12-11T01:17:39.352Z,16.70
2017-12-11T01:18:39.369Z,15.60
2017-12-11T01:19:39.421Z,15.90
2017-12-11T01:20:39.399Z,15.70
2017-12-11T01:21:39.413Z,16.10
2017-12-11T01:22:39.428Z,16.40
2017-12-11T01:23:39.441Z,15.60
2017-12-11T01:24:39.454Z,16.40
2017-12-11T01:25:39.467Z,16.10
2017-12-11T01:26:39.482Z,15.80
2017-12-11T01:27:39.498Z,15.90
2017-12-11T01:28:39.511Z,16.30
2017-12-11T01:29:39.558Z,16.80
2017-12-11T01:30:39.538Z,16.90
2017-12-11T01:31:39.552Z,16.90
2017-12-11T01:32:39.563Z,16.90
2017-12-11T01:33:39.581Z,16.50
2017-12-11T01:34:39.595Z,15.80
2017-12-11T01:35:39.612Z,16.60
2017-12-11T01:36:39.622Z,15.40
2017-12-11T01:37:39.640Z,16.00
2017-12-11T01:38:39.655Z,15.50
2017-12-11T01:39:39.668Z,15.60
2017-12-11T01:40:39.733Z,15.60
2017-12-11T01:41:39.729Z,16.20
2017-12-11T01:42:39.712Z,15.70
2017-12-11T01:43:39.742Z,15.90
2017-12-11T01:44:39.744Z,16.30
2017-12-11T01:45:39.752Z,15.90
2017-12-11T01:46:39.765Z,15.50
2017-12-11T01:47:39.780Z,15.10
2017-12-11T01:48:39.794Z,15.10
2017-12-11T01:49:39.808Z,14.20
2017-12-11T01:50:39.822Z,14.00
2017-12-11T01:51:39.837Z,13.60
2017-12-11T01:52:39.850Z,14.40
2017-12-11T01:53:39.864Z,14.50
2017-12-11T01:54:39.911Z,14.50
2017-12-11T01:55:39.905Z,14.20
2017-12-11T01:56:39.920Z,13.20
2017-12-11T01:57:39.927Z,13.70
2017-12-11T01:58:39.939Z,13.60
2017-12-11T01:59:39.948Z,13.80
2017-12-11T02:00:39.965Z,14.20
2017-12-11T02:01:39.977Z,14.10
2017-12-11T02:02:39.990Z,15.10
2017-12-11T02:03:40.000Z,15.80
2017-12-11T02:04:40.017Z,16.10
2017-12-11T02:05:40.033Z,15.50
2017-12-11T02:06:40.046Z,16.50
2017-12-11T02:07:40.059Z,16.70
2017-12-11T02:08:40.081Z,16.50
2017-12-11T02:09:40.093Z,16.30
2017-12-11T02:10:40.098Z,16.40
2017-12-11T02:11:40.116Z,15.80
2017-12-11T02:12:40.130Z,15.70
2017-12-11T02:13:40.142Z,14.70
2017-12-11T02:14:40.158Z,14.70
2017-12-11T02:15:40.173Z,15.20
2017-12-11T02:16:40.184Z,14.30
2017-12-11T02:17:40.198Z,14.20
2017-12-11T02:18:40.209Z,14.80
2017-12-11T02:19:40.294Z,15.50
2017-12-11T02:20:40.274Z,15.40
2017-12-11T02:21:40.272Z,14.90
2017-12-11T02:22:40.268Z,14.40
2017-12-11T02:23:40.289Z,13.80
2017-12-11T02:24:40.302Z,14.00
2017-12-11T02:25:40.310Z,13.70
2017-12-11T02:26:40.328Z,13.50
2017-12-11T02:27:40.342Z,13.30
2017-12-11T02:28:40.357Z,12.80
2017-12-11T02:29:40.368Z,13.30
2017-12-11T02:30:40.384Z,12.90
2017-12-11T02:31:40.397Z,12.70
2017-12-11T02:32:40.407Z,12.80
2017-12-11T02:33:40.423Z,12.60
2017-12-11T02:34:40.439Z,12.40
2017-12-11T02:35:40.454Z,12.10
2017-12-11T02:36:40.466Z,12.70
2017-12-11T02:37:40.481Z,12.50
2017-12-11T02:38:40.494Z,12.60
2017-12-11T02:39:40.513Z,12.70
2017-12-11T02:40:40.521Z,11.90
2017-12-11T02:41:40.535Z,11.80
2017-12-11T02:42:40.551Z,12.20
2017-12-11T02:43:40.581Z,12.10
2017-12-11T02:44:40.582Z,11.80
2017-12-11T02:45:40.594Z,11.60
2017-12-11T02:46:40.608Z,12.00
2017-12-11T02:47:40.624Z,11.70
2017-12-11T02:48:40.636Z,11.90
2017-12-11T02:49:40.651Z,12.20
2017-12-11T02:50:40.672Z,12.00
2017-12-11T02:51:40.679Z,12.20
2017-12-11T02:52:40.694Z,12.00
2017-12-11T02:53:40.704Z,12.60
2017-12-11T02:54:40.720Z,12.40
2017-12-11T02:55:40.737Z,11.80
2017-12-11T02:56:40.778Z,12.00
2017-12-11T02:57:40.764Z,12.00
2017-12-11T02:58:40.782Z,12.20
2017-12-11T02:59:40.793Z,12.70
2017-12-11T03:00:40.806Z,12.30
2017-12-11T03:01:40.821Z,12.90
2017-12-11T03:02:40.836Z,12.90
2017-12-11T03:03:40.851Z,12.70
2017-12-11T03:04:40.866Z,13.70
2017-12-11T03:05:40.878Z,14.40
2017-12-11T03:06:40.893Z,13.30
2017-12-11T03:07:40.908Z,13.10
2017-12-11T03:08:40.921Z,12.90
2017-12-11T03:09:40.937Z,13.50
2017-12-11T03:10:40.953Z,13.30
2017-12-11T03:11:40.967Z,13.50
2017-12-11T03:12:40.978Z,13.00
2017-12-11T03:13:40.993Z,13.20
2017-12-11T03:14:41.010Z,13.30
2017-12-11T03:15:41.023Z,13.30
2017-12-11T03:16:41.035Z,13.30
2017-12-11T03:17:41.051Z,21.70
2017-12-11T03:18:41.064Z,12.70
2017-12-11T03:19:41.110Z,13.30
2017-12-11T03:20:41.094Z,12.90
2017-12-11T03:21:41.111Z,13.10
2017-12-11T03:22:41.124Z,12.80
2017-12-11T03:23:41.139Z,13.80
2017-12-11T03:24:41.153Z,13.10
2017-12-11T03:25:41.167Z,13.70
2017-12-11T03:26:41.180Z,13.60
2017-12-11T03:27:41.198Z,13.70
2017-12-11T03:28:41.213Z,14.10
2017-12-11T03:29:41.229Z,14.30
2017-12-11T03:30:41.234Z,14.50
2017-12-11T03:31:41.250Z,14.60
2017-12-11T03:32:41.266Z,14.60
2017-12-11T03:33:41.280Z,14.10
2017-12-11T03:34:41.297Z,14.30
2017-12-11T03:35:41.311Z,14.60
2017-12-11T03:36:41.325Z,15.00
2017-12-11T03:37:41.338Z,14.30
2017-12-11T03:38:41.352Z,14.50
2017-12-11T03:39:41.372Z,14.20
2017-12-11T03:40:41.383Z,14.50
2017-12-11T03:41:41.398Z,15.10
2017-12-11T03:42:41.415Z,14.50
2017-12-11T03:43:41.425Z,14.70
2017-12-11T03:44:41.439Z,14.80
2017-12-11T03:45:41.452Z,15.10
2017-12-11T03:46:41.468Z,15.20
2017-12-11T03:47:41.482Z,15.80
2017-12-11T03:48:41.494Z,16.80
2017-12-11T03:49:41.508Z,15.60
2017-12-11T03:50:41.524Z,15.40
2017-12-11T03:51:41.539Z,16.20
2017-12-11T03:52:41.549Z,15.70
2017-12-11T03:53:41.591Z,15.60
2017-12-11T03:54:41.583Z,15.50
2017-12-11T03:55:41.594Z,16.00
2017-12-11T03:56:41.605Z,16.40
2017-12-11T03:57:41.623Z,15.60
2017-12-11T03:58:41.636Z,16.50
2017-12-11T03:59:41.650Z,16.70
2017-12-11T04:00:41.665Z,16.10
2017-12-11T04:01:41.676Z,16.20
2017-12-11T04:02:41.692Z,16.20
2017-12-11T04:03:41.723Z,16.50
2017-12-11T04:04:41.719Z,16.00
2017-12-11T04:05:41.731Z,16.90
2017-12-11T04:06:41.749Z,16.40
2017-12-11T04:07:41.761Z,16.80
2017-12-11T04:08:41.783Z,17.20
2017-12-11T04:09:41.789Z,17.60
2017-12-11T04:10:41.803Z,17.80
2017-12-11T04:11:41.817Z,17.70
2017-12-11T04:12:41.831Z,17.20
2017-12-11T04:13:41.848Z,17.60
2017-12-11T04:14:41.857Z,17.10
2017-12-11T04:15:41.886Z,17.50
2017-12-11T04:16:41.880Z,17.60
2017-12-11T04:17:41.900Z,17.80
2017-12-11T04:18:41.913Z,17.80
2017-12-11T04:19:41.928Z,17.40
2017-12-11T04:20:41.938Z,18.30
2017-12-11T04:21:41.954Z,17.90
2017-12-11T04:22:41.969Z,18.30
2017-12-11T04:23:41.982Z,17.90
2017-12-11T04:24:41.997Z,18.90
2017-12-11T04:25:42.007Z,18.60
2017-12-11T04:26:42.027Z,18.20
2017-12-11T04:27:42.043Z,18.40
2017-12-11T04:28:42.050Z,18.00
2017-12-11T04:29:42.061Z,18.60
2017-12-11T04:30:42.080Z,18.50
2017-12-11T04:31:42.087Z,18.20
2017-12-11T04:32:42.143Z,18.70
2017-12-11T04:33:42.118Z,18.70
2017-12-11T04:34:42.130Z,17.50
2017-12-11T04:35:42.160Z,18.40
2017-12-11T04:36:42.153Z,18.80
2017-12-11T04:37:42.171Z,18.30
2017-12-11T04:38:42.203Z,18.50
2017-12-11T04:39:42.201Z,18.30
2017-12-11T04:40:42.211Z,18.40
2017-12-11T04:41:42.222Z,18.30
2017-12-11T04:42:42.236Z,18.00
2017-12-11T04:43:42.254Z,17.90
2017-12-11T04:44:42.264Z,17.80
2017-12-11T04:45:42.278Z,17.20
2017-12-11T04:46:42.289Z,17.60
2017-12-11T04:47:42.304Z,17.20
2017-12-11T04:48:42.317Z,17.70
2017-12-11T04:49:42.332Z,17.00
2017-12-11T04:50:42.344Z,17.40
2017-12-11T04:51:42.359Z,17.20
2017-12-11T04:52:42.370Z,16.50
2017-12-11T04:53:42.384Z,17.20
2017-12-11T04:54:42.396Z,16.30
2017-12-11T04:55:42.410Z,16.60
2017-12-11T04:56:42.434Z,17.10
2017-12-11T04:57:42.463Z,16.70
2017-12-11T04:58:42.452Z,16.70
2017-12-11T04:59:42.464Z,16.50
2017-12-11T05:00:42.475Z,15.90
2017-12-11T05:01:42.487Z,15.40
2017-12-11T05:02:42.502Z,15.60
2017-12-11T05:03:42.510Z,15.40
2017-12-11T05:04:42.529Z,14.90
2017-12-11T05:05:42.549Z,15.50
2017-12-11T05:06:42.555Z,14.80
2017-12-11T05:07:42.567Z,14.30
2017-12-11T05:08:42.581Z,13.40
2017-12-11T05:09:42.590Z,15.00
2017-12-11T05:10:42.610Z,14.30
2017-12-11T05:11:42.626Z,14.00
2017-12-11T05:12:42.639Z,14.30
2017-12-11T05:13:42.646Z,13.40
2017-12-11T05:14:42.657Z,14.40
2017-12-11T05:15:42.673Z,13.70
2017-12-11T05:16:42.688Z,14.20
2017-12-11T05:17:42.697Z,14.70
2017-12-11T05:18:42.713Z,15.00
2017-12-11T05:19:42.718Z,13.90
2017-12-11T05:20:42.734Z,13.90
2017-12-11T05:21:42.750Z,14.80
2017-12-11T05:22:42.780Z,14.00
2017-12-11T05:23:42.777Z,14.20
2017-12-11T05:24:42.786Z,14.30
2017-12-11T05:25:42.844Z,14.30
2017-12-11T05:26:42.814Z,14.00
2017-12-11T05:27:42.838Z,13.10
2017-12-11T05:28:42.842Z,13.80
2017-12-11T05:29:42.858Z,13.70
2017-12-11T05:30:42.868Z,14.00
2017-12-11T05:31:42.880Z,13.40
2017-12-11T05:32:42.892Z,13.30
2017-12-11T05:33:42.907Z,13.70
2017-12-11T05:34:42.927Z,12.50
2017-12-11T05:35:42.929Z,12.90
2017-12-11T05:36:42.941Z,12.80
2017-12-11T05:37:42.960Z,12.70
2017-12-11T05:38:42.973Z,13.10
2017-12-11T05:39:42.983Z,13.00
2017-12-11T05:40:42.996Z,12.60
2017-12-11T05:41:43.010Z,12.90
2017-12-11T05:42:43.022Z,13.60
2017-12-11T05:43:43.035Z,13.10
2017-12-11T05:44:43.090Z,13.10
2017-12-11T05:45:43.064Z,13.50
2017-12-11T05:46:43.077Z,13.60
2017-12-11T05:47:43.101Z,13.10
2017-12-11T05:48:43.095Z,13.20
2017-12-11T05:49:43.111Z,12.90
2017-12-11T05:50:43.128Z,13.70
2017-12-11T05:51:43.137Z,13.60
2017-12-11T05:52:43.150Z,14.10
2017-12-11T05:53:43.161Z,14.10
2017-12-11T05:54:43.176Z,13.20
2017-12-11T05:55:43.206Z,13.00
2017-12-11T05:56:43.200Z,14.10
2017-12-11T05:57:43.216Z,13.40
2017-12-11T05:58:43.238Z,13.00
2017-12-11T05:59:43.239Z,13.30
2017-12-11T06:00:43.269Z,13.50
2017-12-11T06:01:43.264Z,14.00
2017-12-11T06:02:43.277Z,13.00
2017-12-11T06:03:43.288Z,13.50
2017-12-11T06:04:43.303Z,14.20
2017-12-11T06:05:43.319Z,13.60
2017-12-11T06:06:43.366Z,14.20
2017-12-11T06:07:43.341Z,14.20
2017-12-11T06:08:43.351Z,14.20
2017-12-11T06:09:43.366Z,14.90
2017-12-11T06:10:43.380Z,13.80
2017-12-11T06:11:43.394Z,15.00
2017-12-11T06:12:43.404Z,14.30
2017-12-11T06:13:43.413Z,15.20
2017-12-11T06:14:43.430Z,15.00
2017-12-11T06:15:43.442Z,14.80
2017-12-11T06:16:43.450Z,15.30
2017-12-11T06:17:43.467Z,14.00
2017-12-11T06:18:43.481Z,14.80
2017-12-11T06:19:43.510Z,15.20
2017-12-11T06:20:43.503Z,15.30
2017-12-11T06:21:43.519Z,14.90
2017-12-11T06:22:43.531Z,14.60
2017-12-11T06:23:43.550Z,14.30
2017-12-11T06:24:43.572Z,15.00
2017-12-11T06:25:43.572Z,14.00
2017-12-11T06:26:43.583Z,14.70
2017-12-11T06:27:43.597Z,15.00
2017-12-11T06:28:43.605Z,14.70
2017-12-11T06:29:43.642Z,14.50
2017-12-11T06:30:43.631Z,15.30
2017-12-11T06:31:43.645Z,15.50
2017-12-11T06:32:43.661Z,15.20
2017-12-11T06:33:43.670Z,15.40
2017-12-11T06:34:43.680Z,15.30
2017-12-11T06:35:43.696Z,15.30
2017-12-11T06:36:43.708Z,16.40
2017-12-11T06:37:43.719Z,15.80
2017-12-11T06:38:43.733Z,15.50
2017-12-11T06:39:43.742Z,15.90
2017-12-11T06:40:43.760Z,16.20
2017-12-11T06:41:43.798Z,16.00
2017-12-11T06:42:43.786Z,16.50
2017-12-11T06:43:43.797Z,16.40
2017-12-11T06:44:43.810Z,16.70
2017-12-11T06:45:43.821Z,16.60
2017-12-11T06:46:43.834Z,16.10
2017-12-11T06:47:43.848Z,16.00
2017-12-11T06:48:43.860Z,15.50
2017-12-11T06:49:43.886Z,16.40
2017-12-11T06:50:43.885Z,16.00
2017-12-11T06:51:43.897Z,16.70
2017-12-11T06:52:43.909Z,16.10
2017-12-11T06:53:43.924Z,16.40
2017-12-11T06:54:43.934Z,16.00
2017-12-11T06:55:43.948Z,17.20
2017-12-11T06:56:43.961Z,16.50
2017-12-11T06:57:43.987Z,16.70
2017-12-11T06:58:43.985Z,16.80
2017-12-11T06:59:44.003Z,17.50
2017-12-11T07:00:44.008Z,16.00
2017-12-11T07:01:44.025Z,16.00
2017-12-11T07:02:44.037Z,16.20
2017-12-11T07:03:44.050Z,16.30
2017-12-11T07:04:44.062Z,17.20
2017-12-11T07:05:44.079Z,16.80
2017-12-11T07:06:44.090Z,16.40
2017-12-11T07:07:44.101Z,17.10
2017-12-11T07:08:44.114Z,16.80
2017-12-11T07:09:44.136Z,17.20
2017-12-11T07:10:44.141Z,17.20
2017-12-11T07:11:44.151Z,17.80
2017-12-11T07:12:44.159Z,17.20
2017-12-11T07:13:44.167Z,18.10
2017-12-11T07:14:44.187Z,17.80
2017-12-11T07:15:44.201Z,17.50
2017-12-11T07:16:44.208Z,16.50
2017-12-11T07:17:44.225Z,17.00
2017-12-11T07:18:44.239Z,18.00
2017-12-11T07:19:44.258Z,18.30
2017-12-11T07:20:44.260Z,18.00
2017-12-11T07:21:44.274Z,17.20
2017-12-11T07:22:44.286Z,17.70
2017-12-11T07:23:44.301Z,17.70
2017-12-11T07:24:44.317Z,18.00
2017-12-11T07:25:44.323Z,18.50
2017-12-11T07:26:44.336Z,17.50
2017-12-11T07:27:44.350Z,18.70
2017-12-11T07:28:44.363Z,18.70
2017-12-11T07:29:44.375Z,18.80
2017-12-11T07:30:44.388Z,18.60
2017-12-11T07:31:44.400Z,18.00
2017-12-11T07:32:44.412Z,17.70
2017-12-11T07:33:44.423Z,18.30
2017-12-11T07:34:44.439Z,17.80
2017-12-11T07:35:44.449Z,18.70
2017-12-11T07:36:44.464Z,18.80
2017-12-11T07:37:44.476Z,18.60
2017-12-11T07:38:44.491Z,19.10
2017-12-11T07:39:44.503Z,18.60
2017-12-11T07:40:44.513Z,18.80
2017-12-11T07:41:44.545Z,18.80
2017-12-11T07:42:44.539Z,19.30
2017-12-11T07:43:44.581Z,19.40
2017-12-11T07:44:44.562Z,19.40
2017-12-11T07:45:44.572Z,19.30
2017-12-11T07:46:44.590Z,19.70
2017-12-11T07:47:44.599Z,18.90
2017-12-11T07:48:44.638Z,18.80
2017-12-11T07:49:44.618Z,19.80
2017-12-11T07:50:44.640Z,20.70
2017-12-11T07:51:44.650Z,19.20
2017-12-11T07:52:44.662Z,19.70
2017-12-11T07:53:44.675Z,20.10
2017-12-11T07:54:44.688Z,20.30
2017-12-11T07:55:44.702Z,20.20
2017-12-11T07:56:44.718Z,21.80
2017-12-11T07:57:44.721Z,22.60
2017-12-11T07:58:44.748Z,22.80
2017-12-11T07:59:44.752Z,22.50
2017-12-11T08:00:44.757Z,22.50
2017-12-11T08:01:44.776Z,22.20
2017-12-11T08:02:44.788Z,23.10
2017-12-11T08:03:44.799Z,22.90
2017-12-11T08:04:44.813Z,23.70
2017-12-11T08:05:44.823Z,23.00
2017-12-11T08:06:44.865Z,24.70
2017-12-11T08:07:44.849Z,24.30
2017-12-11T08:08:44.864Z,24.40
2017-12-11T08:09:44.898Z,25.60
2017-12-11T08:10:44.881Z,24.60
2017-12-11T08:11:44.930Z,23.90
2017-12-11T08:12:44.913Z,25.70
2017-12-11T08:13:44.924Z,25.20
2017-12-11T08:14:44.936Z,25.50
2017-12-11T08:15:44.951Z,25.70
2017-12-11T08:16:44.963Z,26.10
2017-12-11T08:17:44.973Z,25.40
2017-12-11T08:18:45.034Z,26.10
2017-12-11T08:19:45.016Z,26.00
2017-12-11T08:20:45.010Z,25.70
2017-12-11T08:21:45.021Z,27.80
2017-12-11T08:22:45.047Z,25.80
2017-12-11T08:23:45.074Z,26.10
2017-12-11T08:24:45.059Z,26.50
2017-12-11T08:25:45.073Z,25.80
2017-12-11T08:26:45.086Z,25.90
2017-12-11T08:27:45.095Z,26.60
2017-12-11T08:28:45.108Z,25.90
2017-12-11T08:29:45.125Z,26.20
2017-12-11T08:30:45.185Z,28.80
2017-12-11T08:31:45.151Z,27.40
2017-12-11T08:32:45.157Z,27.60
2017-12-11T08:33:45.169Z,27.90
2017-12-11T08:34:45.179Z,27.50
2017-12-11T08:35:45.200Z,28.30
2017-12-11T08:36:45.235Z,28.50
2017-12-11T08:37:45.220Z,28.50
2017-12-11T08:38:45.239Z,28.50
2017-12-11T08:39:45.245Z,28.80
2017-12-11T08:40:45.258Z,29.10
2017-12-11T08:41:45.268Z,28.80
2017-12-11T08:42:45.282Z,29.20
2017-12-11T08:43:45.296Z,28.70
2017-12-11T08:44:45.307Z,30.50
2017-12-11T08:45:45.317Z,30.50
2017-12-11T08:46:45.328Z,29.20
2017-12-11T08:47:45.349Z,29.90
2017-12-11T08:48:45.357Z,30.20
2017-12-11T08:49:45.369Z,31.30
2017-12-11T08:50:45.380Z,32.80
2017-12-11T08:51:45.408Z,32.50
2017-12-11T08:52:45.408Z,33.80
2017-12-11T08:53:45.421Z,34.50
2017-12-11T08:54:45.430Z,36.20
2017-12-11T08:55:45.445Z,36.00
2017-12-11T08:56:45.458Z,37.70
2017-12-11T08:57:45.469Z,39.60
2017-12-11T08:58:45.481Z,39.60
2017-12-11T08:59:45.494Z,40.10
2017-12-11T09:00:45.503Z,41.60
2017-12-11T09:01:45.517Z,41.10
2017-12-11T09:02:45.528Z,43.20
2017-12-11T09:03:45.540Z,41.00
2017-12-11T09:04:45.555Z,43.20
2017-12-11T09:05:45.567Z,42.30
2017-12-11T09:06:45.579Z,42.80
2017-12-11T09:07:45.593Z,43.50
2017-12-11T09:08:45.603Z,46.50
2017-12-11T09:09:45.623Z,44.10
2017-12-11T09:10:45.631Z,43.90
2017-12-11T09:11:45.640Z,45.60
2017-12-11T09:12:45.648Z,44.40
2017-12-11T09:13:45.666Z,44.80
2017-12-11T09:14:45.677Z,44.90
2017-12-11T09:15:45.688Z,45.90
2017-12-11T09:16:45.703Z,46.60
2017-12-11T09:17:45.716Z,48.80
2017-12-11T09:18:45.728Z,47.90
2017-12-11T09:19:45.741Z,48.10
2017-12-11T09:20:45.754Z,48.90
2017-12-11T09:21:45.768Z,48.60
2017-12-11T09:22:45.776Z,50.80
2017-12-11T09:23:45.975Z,49.60
2017-12-11T09:24:45.799Z,48.20
2017-12-11T09:25:45.812Z,47.80
2017-12-11T09:26:45.918Z,48.90
2017-12-11T09:27:45.858Z,51.40
2017-12-11T09:28:45.852Z,51.20
2017-12-11T09:29:45.862Z,50.60
2017-12-11T09:30:45.875Z,51.00
2017-12-11T09:31:45.890Z,49.90
2017-12-11T09:32:45.897Z,50.90
2017-12-11T09:33:45.910Z,50.30
2017-12-11T09:34:45.923Z,52.00
2017-12-11T09:35:45.937Z,50.60
2017-12-11T09:36:45.952Z,49.30
2017-12-11T09:37:45.959Z,50.70
2017-12-11T09:38:45.971Z,50.10
2017-12-11T09:39:45.984Z,50.40
2017-12-11T09:40:45.991Z,51.80
2017-12-11T09:41:46.008Z,50.50
2017-12-11T09:42:46.023Z,53.20
2017-12-11T09:43:46.026Z,51.40
2017-12-11T09:44:46.044Z,52.10
2017-12-11T09:45:46.060Z,52.00
2017-12-11T09:46:46.072Z,52.60
2017-12-11T09:47:46.098Z,52.30
2017-12-11T09:48:46.094Z,51.40
2017-12-11T09:49:46.107Z,52.70
2017-12-11T09:50:46.120Z,51.00
2017-12-11T09:51:46.134Z,53.20
2017-12-11T09:52:46.144Z,53.90
2017-12-11T09:53:46.155Z,54.60
2017-12-11T09:54:46.168Z,53.20
2017-12-11T09:55:46.181Z,52.50
2017-12-11T09:56:46.197Z,51.30
2017-12-11T09:57:46.202Z,50.80
2017-12-11T09:58:46.217Z,50.00
2017-12-11T09:59:46.231Z,50.00
2017-12-11T10:00:46.238Z,51.60
2017-12-11T10:01:46.260Z,52.40
2017-12-11T10:02:46.270Z,54.40
2017-12-11T10:03:46.281Z,52.10
2017-12-11T10:04:46.309Z,49.70
2017-12-11T10:05:46.304Z,48.60
2017-12-11T10:06:46.317Z,51.90
2017-12-11T10:07:46.329Z,49.30
2017-12-11T10:08:46.338Z,47.30
2017-12-11T10:09:46.356Z,48.80
2017-12-11T10:10:46.368Z,49.60
2017-12-11T10:11:46.377Z,47.90
2017-12-11T10:12:46.390Z,47.00
2017-12-11T10:13:46.402Z,47.50
2017-12-11T10:14:46.419Z,47.20
2017-12-11T10:15:46.428Z,47.60
2017-12-11T10:16:46.483Z,47.10
2017-12-11T10:17:46.457Z,45.50
2017-12-11T10:18:46.467Z,46.40
2017-12-11T10:19:46.476Z,45.80
2017-12-11T10:20:46.503Z,45.20
2017-12-11T10:21:46.498Z,44.60
2017-12-11T10:22:46.511Z,44.50
2017-12-11T10:23:46.525Z,42.70
2017-12-11T10:24:46.537Z,43.40
2017-12-11T10:25:46.549Z,44.20
2017-12-11T10:26:46.562Z,43.90
2017-12-11T10:27:46.578Z,42.60
2017-12-11T10:28:46.588Z,42.30
2017-12-11T10:29:46.597Z,42.90
2017-12-11T10:30:46.666Z,41.70
2017-12-11T10:31:46.622Z,42.50
2017-12-11T10:32:46.645Z,43.80
2017-12-11T10:33:46.650Z,40.90
2017-12-11T10:34:46.660Z,40.10
2017-12-11T10:35:46.690Z,40.60
2017-12-11T10:36:46.686Z,41.80
2017-12-11T10:37:46.696Z,41.00
2017-12-11T10:38:46.707Z,42.10
2017-12-11T10:39:46.717Z,42.70
2017-12-11T10:40:46.732Z,42.20
2017-12-11T10:41:46.748Z,42.10
2017-12-11T10:42:46.757Z,43.40
2017-12-11T10:43:46.770Z,42.40
2017-12-11T10:44:46.779Z,44.40
2017-12-11T10:45:46.803Z,44.60
2017-12-11T10:46:46.805Z,44.10
2017-12-11T10:47:46.818Z,43.60
2017-12-11T10:48:46.826Z,44.50
2017-12-11T10:49:46.841Z,43.00
2017-12-11T10:50:46.853Z,44.10
2017-12-11T10:51:46.865Z,41.50
2017-12-11T10:52:46.880Z,41.40
2017-12-11T10:53:46.887Z,42.00
2017-12-11T10:54:46.901Z,41.80
2017-12-11T10:55:46.980Z,42.10
2017-12-11T10:56:46.926Z,38.80
2017-12-11T10:57:46.997Z,40.50
2017-12-11T10:58:46.986Z,39.30
2017-12-11T10:59:46.983Z,40.10
2017-12-11T11:00:46.970Z,38.30
2017-12-11T11:01:47.038Z,38.20
2017-12-11T11:02:47.003Z,36.80
2017-12-11T11:03:47.079Z,37.30
2017-12-11T11:04:47.066Z,38.30
2017-12-11T11:05:47.088Z,36.20
2017-12-11T11:06:47.049Z,35.70
2017-12-11T11:07:47.106Z,37.00
2017-12-11T11:08:47.129Z,36.50
2017-12-11T11:09:47.086Z,36.40
2017-12-11T11:10:47.123Z,37.10
2017-12-11T11:11:47.121Z,37.30
2017-12-11T11:12:47.121Z,37.30
2017-12-11T11:13:47.176Z,37.00
2017-12-11T11:14:47.167Z,36.80
2017-12-11T11:15:47.164Z,38.10
2017-12-11T11:16:47.173Z,40.00
2017-12-11T11:17:47.198Z,40.30
2017-12-11T11:18:47.190Z,39.70
2017-12-11T11:19:47.262Z,39.90
2017-12-11T11:20:47.278Z,41.40
2017-12-11T11:21:47.259Z,43.20
2017-12-11T11:22:47.255Z,42.20
2017-12-11T11:23:47.258Z,43.20
2017-12-11T11:24:47.323Z,41.90
2017-12-11T11:25:47.282Z,44.40
2017-12-11T11:26:47.295Z,43.30
2017-12-11T11:27:47.310Z,44.10
2017-12-11T11:28:47.327Z,44.10
2017-12-11T11:29:47.338Z,42.90
2017-12-11T11:30:47.344Z,43.40
2017-12-11T11:31:47.352Z,44.40
2017-12-11T11:32:47.420Z,44.70
2017-12-11T11:33:47.388Z,44.00
2017-12-11T11:34:47.454Z,44.00
2017-12-11T11:35:47.414Z,43.40
2017-12-11T11:36:47.439Z,44.70
2017-12-11T11:37:47.653Z,46.70
2017-12-11T11:38:47.478Z,45.60
2017-12-11T11:39:47.476Z,44.50
2017-12-11T11:40:47.520Z,45.60
2017-12-11T11:41:47.525Z,45.00
2017-12-11T11:42:47.530Z,45.10
2017-12-11T11:43:47.507Z,45.20
2017-12-11T11:44:47.530Z,46.00
2017-12-11T11:45:47.530Z,46.00
2017-12-11T11:46:47.543Z,46.40
2017-12-11T11:47:47.571Z,45.10
2017-12-11T11:48:47.611Z,47.00
2017-12-11T11:49:47.585Z,45.20
2017-12-11T11:50:47.591Z,44.40
2017-12-11T11:51:47.603Z,46.20
2017-12-11T11:52:47.619Z,43.80
2017-12-11T11:53:47.633Z,46.20
2017-12-11T11:54:47.639Z,46.00
2017-12-11T11:55:47.676Z,46.80
2017-12-11T11:56:47.684Z,44.40
2017-12-11T11:57:47.679Z,46.90
2017-12-11T11:58:47.728Z,46.60
2017-12-11T11:59:47.710Z,46.00
2017-12-11T12:00:47.746Z,46.10
2017-12-11T12:01:47.729Z,46.50
2017-12-11T12:02:47.749Z,48.60
2017-12-11T12:03:47.858Z,46.80
2017-12-11T12:04:47.763Z,46.40
2017-12-11T12:05:47.778Z,48.90
2017-12-11T12:06:47.790Z,46.80
2017-12-11T12:07:47.803Z,46.00
2017-12-11T12:08:47.818Z,45.70
2017-12-11T12:09:47.828Z,47.10
2017-12-11T12:10:47.843Z,47.20
2017-12-11T12:11:47.855Z,47.90
2017-12-11T12:12:47.862Z,47.30
2017-12-11T12:13:47.878Z,48.80
2017-12-11T12:14:47.895Z,47.20
2017-12-11T12:15:47.921Z,48.10
2017-12-11T12:16:47.919Z,48.00
2017-12-11T12:17:47.972Z,49.40
2017-12-11T12:18:47.946Z,48.30
2017-12-11T12:19:47.954Z,48.80
2017-12-11T12:20:47.965Z,50.00
2017-12-11T12:21:47.976Z,50.30
2017-12-11T12:22:47.990Z,51.00
2017-12-11T12:23:48.004Z,50.50
2017-12-11T12:24:48.013Z,50.10
2017-12-11T12:25:48.025Z,50.20
2017-12-11T12:26:48.040Z,50.90
2017-12-11T12:27:48.052Z,51.40
2017-12-11T12:28:48.068Z,51.20
2017-12-11T12:29:48.077Z,51.70
2017-12-11T12:30:48.094Z,50.60
2017-12-11T12:31:48.100Z,51.00
2017-12-11T12:32:48.114Z,51.20
2017-12-11T12:33:48.132Z,51.30
2017-12-11T12:34:48.143Z,53.70
2017-12-11T12:35:48.155Z,51.80
2017-12-11T12:36:48.165Z,53.10
2017-12-11T12:37:48.176Z,52.50
2017-12-11T12:38:48.189Z,51.90
2017-12-11T12:39:48.205Z,50.40
2017-12-11T12:40:48.228Z,53.20
2017-12-11T12:41:48.226Z,51.50
2017-12-11T12:42:48.243Z,50.30
2017-12-11T12:43:48.250Z,51.00
2017-12-11T12:44:48.263Z,50.00
2017-12-11T12:45:48.274Z,49.80
2017-12-11T12:46:48.288Z,47.30
2017-12-11T12:47:48.300Z,48.90
2017-12-11T12:48:48.312Z,47.40
2017-12-11T12:49:48.324Z,48.80
2017-12-11T12:50:48.340Z,47.40
2017-12-11T12:51:48.354Z,47.60
2017-12-11T12:52:48.363Z,47.20